Terminal Aerodrome Forecast
Issued by NWS Houston/Galveston TX

Home | Current Version | Previous Version | Text Only | Print | Product List | Glossary On
Versions: 1 2 3 4 5 6 7 8 9 10 11 12 13 14 15 16 17 18 19 20 21 22 23 24 25
000
FTUS44 KHGX 191120
TAFHOU
TAF
KHOU 191120Z 1912/2012 00000KT P6SM FEW015
      TEMPO 1913/1915 BKN030
     FM191600 23005KT P6SM SCT035
     FM192200 15008KT P6SM FEW060
     FM200300 17004KT P6SM SKC
     FM201000 24001KT P6SM FEW015=

USA.gov is the U.S. government's official web portal to all federal, state and local government web resources and services.